Time;durP1;ratioP1;P1;durP2;ratioP2;P2;SDS_P1;SDS_P2;PMS_P1;PMS_P2;Temp;Humidity;BMP_temperature;BMP_pressure;BME280_temperature;BME280_humidity;BME280_pressure;Samples;Min_cycle;Max_cycle;Signal;HPM_P1;HPM_P2
2021/06/28 00:01:36;;;;;;;5.25;3.30;;;;;;;;;;5093074;28;20691;-73
2021/06/28 00:04:03;;;;;;;4.38;2.78;;;;;;;;;;5092109;28;20266;-73
2021/06/28 00:06:29;;;;;;;4.88;3.38;;;;;;;;;;5093235;28;20250;-73
2021/06/28 00:08:56;;;;;;;4.93;2.97;;;;;;;;;;5093032;28;20236;-73
2021/06/28 00:11:23;;;;;;;2.63;2.25;;;;;;;;;;5092842;28;21055;-73
2021/06/28 00:13:52;;;;;;;3.47;2.40;;;;;;;;;;5091066;28;20736;-73
2021/06/28 00:16:18;;;;;;;3.90;2.72;;;;;;;;;;5092702;28;20201;-73
2021/06/28 00:18:45;;;;;;;3.90;2.92;;;;;;;;;;5092687;28;20299;-73
2021/06/28 00:21:11;;;;;;;3.42;2.63;;;;;;;;;;5092699;28;20334;-74
2021/06/28 00:23:38;;;;;;;2.55;2.20;;;;;;;;;;5091793;28;20750;-74
2021/06/28 00:26:04;;;;;;;3.60;2.85;;;;;;;;;;5092650;28;20299;-74
2021/06/28 00:28:31;;;;;;;2.95;2.33;;;;;;;;;;5092684;28;20307;-73
2021/06/28 00:30:58;;;;;;;4.30;2.90;;;;;;;;;;5091381;28;20304;-75
2021/06/28 00:33:24;;;;;;;3.42;2.60;;;;;;;;;;5090772;28;20212;-74
2021/06/28 00:35:51;;;;;;;3.90;2.50;;;;;;;;;;5092799;28;20220;-73
2021/06/28 00:38:17;;;;;;;3.78;2.70;;;;;;;;;;5092651;28;20513;-74
2021/06/28 00:40:44;;;;;;;3.33;2.70;;;;;;;;;;5092958;28;20228;-74
2021/06/28 00:43:11;;;;;;;3.17;2.63;;;;;;;;;;5091847;28;20203;-73
2021/06/28 00:45:39;;;;;;;4.55;2.72;;;;;;;;;;5087308;28;20231;-73
2021/06/28 00:48:07;;;;;;;3.03;2.08;;;;;;;;;;5071430;28;20204;-75
2021/06/28 00:50:38;;;;;;;6.20;3.35;;;;;;;;;;5075841;28;20307;-74
2021/06/28 00:53:06;;;;;;;3.95;2.88;;;;;;;;;;5091147;28;20290;-74
2021/06/28 00:55:33;;;;;;;3.67;2.63;;;;;;;;;;5091386;28;20731;-74
2021/06/28 00:58:00;;;;;;;3.47;2.42;;;;;;;;;;5090177;28;20200;-74
2021/06/28 01:34:46;;;;;;;3.23;2.60;;;;;;;;;;5108484;27;20535;-73
2021/06/28 01:37:20;;;;;;;4.82;3.10;;;;;;;;;;5109220;28;20299;-74
2021/06/28 01:39:48;;;;;;;3.20;2.60;;;;;;;;;;5108907;28;20658;-74
2021/06/28 01:42:15;;;;;;;4.97;3.60;;;;;;;;;;5107833;28;20232;-73
2021/06/28 01:44:41;;;;;;;5.43;3.35;;;;;;;;;;5108509;28;20311;-74
2021/06/28 01:47:07;;;;;;;5.18;2.97;;;;;;;;;;5091799;28;20287;-74
2021/06/28 01:49:34;;;;;;;3.50;2.72;;;;;;;;;;5091218;28;20208;-74
2021/06/28 01:52:00;;;;;;;3.92;2.78;;;;;;;;;;5108901;28;20199;-74
2021/06/28 01:54:27;;;;;;;4.47;2.85;;;;;;;;;;5109791;28;20270;-74
2021/06/28 01:56:54;;;;;;;3.50;2.42;;;;;;;;;;5108595;28;20224;-74
2021/06/28 01:59:29;;;;;;;4.47;3.38;;;;;;;;;;5109831;28;20271;-73
2021/06/28 02:01:56;;;;;;;5.30;2.97;;;;;;;;;;5111177;28;20294;-73
2021/06/28 02:04:23;;;;;;;3.63;2.90;;;;;;;;;;5109261;28;20231;-74
2021/06/28 02:06:50;;;;;;;3.90;3.08;;;;;;;;;;5108684;28;20214;-74
2021/06/28 02:09:16;;;;;;;5.53;3.20;;;;;;;;;;5107850;28;20282;-74
2021/06/28 02:11:43;;;;;;;3.58;2.70;;;;;;;;;;5107700;28;20298;-74
2021/06/28 02:14:09;;;;;;;3.50;2.65;;;;;;;;;;5107012;28;20238;-74
2021/06/28 02:16:35;;;;;;;4.80;3.08;;;;;;;;;;5108545;28;20200;-73
2021/06/28 02:19:02;;;;;;;4.57;3.40;;;;;;;;;;5108623;28;20203;-74
2021/06/28 02:21:28;;;;;;;5.80;3.17;;;;;;;;;;5108439;28;20286;-75
2021/06/28 02:23:55;;;;;;;4.10;3.10;;;;;;;;;;5107909;28;20235;-75
2021/06/28 02:26:21;;;;;;;3.08;2.78;;;;;;;;;;5108709;28;20245;-75
2021/06/28 02:28:48;;;;;;;4.40;2.50;;;;;;;;;;5108580;28;20817;-75
2021/06/28 02:31:20;;;;;;;3.05;2.67;;;;;;;;;;5108330;28;20300;-73
2021/06/28 02:33:47;;;;;;;5.82;3.00;;;;;;;;;;5106025;28;20269;-73
2021/06/28 02:36:13;;;;;;;4.15;2.67;;;;;;;;;;5106950;28;20240;-73
2021/06/28 02:38:40;;;;;;;3.28;2.60;;;;;;;;;;5108766;28;20207;-73
2021/06/28 02:41:07;;;;;;;4.32;2.80;;;;;;;;;;5110478;28;20210;-73
2021/06/28 02:43:34;;;;;;;3.58;2.95;;;;;;;;;;5110903;28;20295;-73
2021/06/28 02:46:00;;;;;;;3.50;2.95;;;;;;;;;;5086419;28;20232;-73
2021/06/28 02:48:27;;;;;;;3.65;2.65;;;;;;;;;;5072584;28;20205;-73
2021/06/28 02:50:53;;;;;;;3.80;2.88;;;;;;;;;;5082376;28;20211;-73
2021/06/28 02:53:20;;;;;;;4.55;3.08;;;;;;;;;;5093667;28;20230;-73
2021/06/28 02:55:48;;;;;;;5.13;3.15;;;;;;;;;;5094303;28;20274;-73
2021/06/28 02:58:15;;;;;;;2.97;2.38;;;;;;;;;;5093100;28;20287;-73
2021/06/28 03:00:42;;;;;;;3.72;2.80;;;;;;;;;;5094143;28;20325;-72
2021/06/28 03:03:09;;;;;;;3.05;2.75;;;;;;;;;;5093319;28;20204;-74
2021/06/28 03:05:36;;;;;;;3.30;2.80;;;;;;;;;;5094167;28;20224;-76
2021/06/28 03:08:06;;;;;;;3.85;2.75;;;;;;;;;;5093047;28;20208;-75
2021/06/28 03:10:35;;;;;;;4.88;3.15;;;;;;;;;;5094071;28;20258;-75
2021/06/28 03:13:03;;;;;;;2.72;2.33;;;;;;;;;;5093198;28;20204;-75
2021/06/28 03:15:29;;;;;;;4.43;2.97;;;;;;;;;;5093507;28;20649;-74
2021/06/28 03:17:56;;;;;;;3.85;3.00;;;;;;;;;;5094079;28;20204;-75
2021/06/28 03:20:22;;;;;;;3.75;2.90;;;;;;;;;;5092382;28;20228;-74
2021/06/28 03:22:48;;;;;;;4.13;2.92;;;;;;;;;;5093391;28;20227;-74
2021/06/28 03:25:17;;;;;;;3.72;2.67;;;;;;;;;;5093758;28;20319;-74
2021/06/28 03:27:43;;;;;;;4.03;2.80;;;;;;;;;;5093541;28;20579;-74
2021/06/28 03:30:11;;;;;;;4.45;2.70;;;;;;;;;;5093331;28;20247;-73
2021/06/28 03:32:38;;;;;;;3.28;2.47;;;;;;;;;;5093438;28;20208;-74
2021/06/28 03:35:04;;;;;;;3.83;3.13;;;;;;;;;;5093244;28;20272;-75
2021/06/28 03:37:31;;;;;;;3.70;3.08;;;;;;;;;;5093375;28;20657;-75
2021/06/28 03:39:58;;;;;;;3.47;2.70;;;;;;;;;;5092302;28;20208;-75
2021/06/28 03:42:24;;;;;;;4.20;3.15;;;;;;;;;;5093166;28;20287;-74
2021/06/28 03:44:50;;;;;;;4.40;3.08;;;;;;;;;;5092323;28;20311;-76
2021/06/28 03:47:17;;;;;;;3.60;3.22;;;;;;;;;;5073402;28;20256;-75
2021/06/28 03:49:43;;;;;;;3.42;3.03;;;;;;;;;;5073018;28;20201;-75
2021/06/28 03:52:09;;;;;;;4.35;2.90;;;;;;;;;;5091689;28;20211;-75
2021/06/28 03:54:36;;;;;;;3.83;2.72;;;;;;;;;;5092377;28;20232;-76
2021/06/28 03:57:02;;;;;;;5.50;3.22;;;;;;;;;;5090746;28;20684;-74
2021/06/28 03:59:29;;;;;;;3.05;2.40;;;;;;;;;;5093062;28;20212;-75
2021/06/28 04:01:55;;;;;;;5.25;2.92;;;;;;;;;;5092846;28;20200;-75
2021/06/28 04:04:21;;;;;;;4.75;3.70;;;;;;;;;;5092160;28;20227;-75
2021/06/28 04:06:48;;;;;;;3.50;2.70;;;;;;;;;;5092877;28;20215;-75
2021/06/28 04:09:14;;;;;;;3.78;2.80;;;;;;;;;;5092813;28;20467;-75
2021/06/28 04:11:40;;;;;;;4.18;2.58;;;;;;;;;;5092685;28;20204;-75
2021/06/28 04:14:07;;;;;;;4.22;3.10;;;;;;;;;;5091767;28;20885;-74
2021/06/28 04:16:33;;;;;;;3.25;2.65;;;;;;;;;;5093106;28;20228;-73
2021/06/28 04:19:00;;;;;;;3.30;2.35;;;;;;;;;;5094497;28;20197;-75
2021/06/28 04:21:26;;;;;;;3.25;2.70;;;;;;;;;;5095120;28;20201;-75
2021/06/28 04:23:52;;;;;;;3.97;3.20;;;;;;;;;;5094923;28;20287;-75
2021/06/28 04:26:19;;;;;;;3.10;2.60;;;;;;;;;;5096289;28;20307;-74
2021/06/28 04:28:45;;;;;;;3.05;2.50;;;;;;;;;;5092781;28;20658;-76
2021/06/28 04:31:11;;;;;;;4.13;3.10;;;;;;;;;;5092321;28;20657;-73
2021/06/28 04:33:38;;;;;;;4.70;3.05;;;;;;;;;;5090446;28;20228;-73
2021/06/28 04:36:04;;;;;;;4.53;3.10;;;;;;;;;;5092444;28;20220;-74
2021/06/28 04:38:31;;;;;;;3.63;2.83;;;;;;;;;;5093022;28;20201;-75
2021/06/28 04:40:57;;;;;;;3.75;3.00;;;;;;;;;;5093465;28;20848;-74
2021/06/28 04:43:24;;;;;;;3.33;2.58;;;;;;;;;;5098415;28;20207;-74
2021/06/28 04:45:50;;;;;;;4.43;2.85;;;;;;;;;;5082747;28;20307;-74
2021/06/28 04:48:16;;;;;;;5.28;3.28;;;;;;;;;;5071872;28;20207;-74
2021/06/28 04:50:45;;;;;;;3.72;2.95;;;;;;;;;;5090764;28;20216;-74
2021/06/28 04:53:11;;;;;;;3.90;3.05;;;;;;;;;;5091371;28;20235;-75
2021/06/28 04:55:38;;;;;;;3.08;2.75;;;;;;;;;;5091768;28;20251;-75
2021/06/28 04:58:05;;;;;;;4.03;2.85;;;;;;;;;;5092277;28;20291;-76
2021/06/28 05:00:31;;;;;;;4.13;2.30;;;;;;;;;;5091748;28;20656;-75
2021/06/28 05:02:58;;;;;;;3.67;2.70;;;;;;;;;;5091203;28;20745;-75
2021/06/28 05:05:24;;;;;;;3.60;2.88;;;;;;;;;;5082106;28;20217;-74
2021/06/28 05:07:51;;;;;;;3.53;2.90;;;;;;;;;;5074176;28;20275;-74
2021/06/28 05:10:17;;;;;;;3.65;3.00;;;;;;;;;;5078464;28;20197;-75
2021/06/28 05:12:44;;;;;;;4.32;3.15;;;;;;;;;;5074523;28;20196;-74
2021/06/28 05:15:11;;;;;;;3.50;2.67;;;;;;;;;;5075304;28;20224;-73
2021/06/28 05:17:39;;;;;;;4.53;2.95;;;;;;;;;;5078568;28;20193;-73
2021/06/28 05:20:06;;;;;;;3.50;2.47;;;;;;;;;;5079600;28;20201;-73
2021/06/28 05:22:32;;;;;;;3.88;2.97;;;;;;;;;;5085741;28;20202;-73
2021/06/28 05:24:59;;;;;;;3.63;2.70;;;;;;;;;;5091241;28;20379;-72
2021/06/28 05:27:25;;;;;;;2.70;2.33;;;;;;;;;;5091401;28;20247;-74
2021/06/28 05:29:55;;;;;;;3.95;2.88;;;;;;;;;;5091407;28;20207;-73
2021/06/28 05:32:25;;;;;;;2.90;2.60;;;;;;;;;;5091233;28;20257;-73
2021/06/28 05:34:52;;;;;;;4.25;3.08;;;;;;;;;;5090987;28;20258;-73
2021/06/28 05:37:19;;;;;;;4.10;2.75;;;;;;;;;;5091647;28;20243;-73
2021/06/28 05:39:46;;;;;;;4.07;3.10;;;;;;;;;;5091371;28;20231;-74
2021/06/28 05:42:12;;;;;;;3.70;2.60;;;;;;;;;;5091446;28;20222;-73
2021/06/28 05:44:39;;;;;;;3.88;2.97;;;;;;;;;;5090421;28;20311;-74
2021/06/28 05:47:06;;;;;;;3.90;3.08;;;;;;;;;;5072621;28;20758;-74
2021/06/28 05:49:34;;;;;;;3.20;2.40;;;;;;;;;;5071307;28;20209;-73
2021/06/28 05:52:01;;;;;;;4.28;3.00;;;;;;;;;;5071112;28;20219;-73
2021/06/28 05:54:27;;;;;;;3.53;2.53;;;;;;;;;;5070474;28;20275;-73
2021/06/28 05:56:54;;;;;;;4.10;3.05;;;;;;;;;;5071026;28;20215;-75
2021/06/28 05:59:20;;;;;;;5.70;2.95;;;;;;;;;;5086678;28;20292;-74
2021/06/28 06:01:46;;;;;;;3.10;2.58;;;;;;;;;;5070633;28;22094;-73
2021/06/28 06:04:16;;;;;;;4.80;3.28;;;;;;;;;;5077579;28;20217;-74
2021/06/28 06:06:43;;;;;;;3.92;2.88;;;;;;;;;;5091021;28;20224;-73
2021/06/28 06:09:10;;;;;;;4.55;3.03;;;;;;;;;;5090167;28;20204;-73
2021/06/28 06:17:19;;;;;;;5.13;3.47;;;;;;;;;;5006794;28;20223;-73
2021/06/28 06:19:45;;;;;;;3.83;2.97;;;;;;;;;;5012216;28;20215;-73
2021/06/28 06:22:12;;;;;;;4.18;3.03;;;;;;;;;;5031019;28;20297;-71
2021/06/28 06:24:38;;;;;;;4.43;2.53;;;;;;;;;;5034223;28;20323;-72
2021/06/28 06:27:07;;;;;;;3.22;2.83;;;;;;;;;;5034466;28;20293;-72
2021/06/28 06:29:34;;;;;;;3.40;2.25;;;;;;;;;;5033139;28;20233;-72
2021/06/28 06:32:00;;;;;;;3.42;2.45;;;;;;;;;;5033541;28;20202;-73
2021/06/28 06:34:27;;;;;;;2.47;2.03;;;;;;;;;;5033262;28;20226;-72
2021/06/28 06:36:53;;;;;;;3.40;2.10;;;;;;;;;;5033944;28;20241;-72
2021/06/28 06:39:20;;;;;;;3.55;1.80;;;;;;;;;;5033948;28;20206;-73
2021/06/28 06:41:47;;;;;;;2.00;1.80;;;;;;;;;;5033864;28;20671;-73
2021/06/28 06:44:13;;;;;;;2.40;1.83;;;;;;;;;;5014280;28;20643;-73
2021/06/28 06:46:40;;;;;;;2.17;1.55;;;;;;;;;;5013477;28;20703;-74
2021/06/28 06:49:06;;;;;;;2.15;1.65;;;;;;;;;;5013249;28;20226;-74
2021/06/28 06:51:33;;;;;;;3.10;1.95;;;;;;;;;;5012846;28;20206;-74
2021/06/28 06:53:59;;;;;;;1.58;1.48;;;;;;;;;;5013575;28;20218;-74
2021/06/28 06:56:26;;;;;;;1.38;1.25;;;;;;;;;;5014219;28;20217;-74
2021/06/28 06:58:52;;;;;;;1.48;1.30;;;;;;;;;;5013948;28;20647;-74
2021/06/28 07:01:19;;;;;;;2.75;1.95;;;;;;;;;;5014269;28;20203;-74
2021/06/28 07:03:45;;;;;;;2.88;1.63;;;;;;;;;;5013511;28;20223;-73
2021/06/28 07:06:12;;;;;;;2.35;2.08;;;;;;;;;;5014212;28;20294;-73
2021/06/28 07:08:38;;;;;;;2.08;1.60;;;;;;;;;;5013552;28;20290;-73
2021/06/28 07:11:10;;;;;;;2.60;1.55;;;;;;;;;;5013825;28;20222;-74
2021/06/28 07:13:38;;;;;;;1.70;1.60;;;;;;;;;;5013446;28;20285;-74
2021/06/28 07:16:04;;;;;;;2.30;1.67;;;;;;;;;;5013565;28;20261;-73
2021/06/28 07:18:31;;;;;;;1.77;1.50;;;;;;;;;;5013960;28;20246;-74
2021/06/28 07:20:57;;;;;;;1.80;1.50;;;;;;;;;;5013870;28;20207;-74
2021/06/28 07:23:24;;;;;;;1.83;1.63;;;;;;;;;;5012966;28;20791;-73
2021/06/28 07:25:50;;;;;;;1.63;1.52;;;;;;;;;;5012302;28;20223;-73
2021/06/28 07:28:16;;;;;;;1.90;1.50;;;;;;;;;;5013662;28;20203;-73
2021/06/28 07:30:43;;;;;;;1.63;1.52;;;;;;;;;;5013551;28;20290;-73
2021/06/28 07:33:09;;;;;;;2.08;1.30;;;;;;;;;;5013247;28;20235;-72
2021/06/28 07:35:36;;;;;;;1.67;1.55;;;;;;;;;;5013119;28;20219;-74
2021/06/28 07:38:03;;;;;;;9.68;2.40;;;;;;;;;;5013509;28;20203;-74
2021/06/28 07:40:29;;;;;;;2.70;1.63;;;;;;;;;;5013234;28;20207;-75
2021/06/28 07:42:56;;;;;;;2.13;1.40;;;;;;;;;;5013126;28;20310;-74
2021/06/28 07:45:23;;;;;;;1.67;1.40;;;;;;;;;;5011340;28;20324;-74
2021/06/28 07:47:50;;;;;;;1.35;1.25;;;;;;;;;;5013115;28;20230;-74
2021/06/28 07:50:17;;;;;;;2.38;1.50;;;;;;;;;;5011789;28;20256;-73
2021/06/28 07:52:43;;;;;;;1.42;1.33;;;;;;;;;;5013090;28;21065;-74
2021/06/28 07:55:11;;;;;;;1.33;1.15;;;;;;;;;;5012035;28;20586;-74
2021/06/28 07:57:38;;;;;;;1.75;1.27;;;;;;;;;;5013035;28;20211;-73
2021/06/28 08:00:08;;;;;;;2.33;1.63;;;;;;;;;;5013125;28;20307;-74
2021/06/28 08:02:34;;;;;;;1.25;1.17;;;;;;;;;;5012815;28;20759;-74
2021/06/28 08:05:02;;;;;;;1.90;1.35;;;;;;;;;;5012044;28;20287;-74
2021/06/28 08:07:29;;;;;;;1.48;1.05;;;;;;;;;;5012801;28;20737;-74
2021/06/28 08:10:00;;;;;;;1.45;1.30;;;;;;;;;;5011960;28;20200;-73
2021/06/28 08:12:27;;;;;;;1.67;1.50;;;;;;;;;;5012914;28;20203;-74
2021/06/28 08:14:53;;;;;;;1.52;1.35;;;;;;;;;;5012856;28;20235;-74
2021/06/28 08:17:20;;;;;;;1.85;1.25;;;;;;;;;;5013214;28;20218;-74
2021/06/28 08:19:47;;;;;;;1.83;1.40;;;;;;;;;;5012569;28;20234;-73
2021/06/28 08:22:14;;;;;;;1.75;1.50;;;;;;;;;;5011113;28;20357;-73
2021/06/28 08:24:41;;;;;;;2.70;1.50;;;;;;;;;;5011767;28;20322;-74
2021/06/28 08:27:07;;;;;;;1.10;1.00;;;;;;;;;;4995043;28;20230;-74
2021/06/28 08:29:34;;;;;;;2.05;1.40;;;;;;;;;;5011447;28;20663;-73
2021/06/28 08:32:00;;;;;;;2.08;1.58;;;;;;;;;;5012411;28;20199;-73
2021/06/28 08:34:27;;;;;;;1.35;1.25;;;;;;;;;;5011638;28;20223;-74
2021/06/28 08:36:54;;;;;;;1.40;1.30;;;;;;;;;;5012192;28;20566;-74
2021/06/28 08:39:20;;;;;;;2.13;1.58;;;;;;;;;;5012615;28;20643;-73
2021/06/28 08:41:49;;;;;;;1.52;1.08;;;;;;;;;;5012327;28;20199;-73
2021/06/28 08:44:16;;;;;;;2.15;1.30;;;;;;;;;;5009853;28;20285;-74
2021/06/28 08:46:43;;;;;;;1.27;1.10;;;;;;;;;;5012230;28;20203;-73
2021/06/28 08:49:10;;;;;;;1.70;1.25;;;;;;;;;;5010713;28;20679;-74
2021/06/28 08:51:36;;;;;;;1.98;1.38;;;;;;;;;;5012032;28;20611;-73
2021/06/28 08:54:06;;;;;;;1.60;1.50;;;;;;;;;;5011534;28;20547;-73
2021/06/28 08:56:33;;;;;;;3.70;1.48;;;;;;;;;;5011828;28;20646;-74
2021/06/28 08:59:00;;;;;;;1.17;1.08;;;;;;;;;;5010645;28;20250;-74
2021/06/28 09:01:26;;;;;;;1.63;1.42;;;;;;;;;;5012034;28;20253;-74
2021/06/28 09:03:53;;;;;;;1.33;1.23;;;;;;;;;;5011322;28;20238;-74
2021/06/28 09:06:23;;;;;;;2.83;1.50;;;;;;;;;;5010589;28;20617;-75
2021/06/28 09:08:53;;;;;;;1.77;1.30;;;;;;;;;;5011494;28;20683;-75
2021/06/28 09:11:20;;;;;;;1.35;1.23;;;;;;;;;;5011495;28;20617;-74
2021/06/28 09:13:47;;;;;;;1.77;1.40;;;;;;;;;;5010635;28;20568;-74
2021/06/28 09:16:18;;;;;;;1.70;1.58;;;;;;;;;;5011056;28;20219;-74
2021/06/28 09:18:49;;;;;;;1.88;1.30;;;;;;;;;;5011274;28;20222;-74
2021/06/28 09:21:15;;;;;;;1.95;1.50;;;;;;;;;;5011071;28;20238;-73
2021/06/28 09:23:43;;;;;;;1.73;1.63;;;;;;;;;;5010533;28;20398;-73
2021/06/28 09:26:13;;;;;;;1.42;1.27;;;;;;;;;;5011159;28;20231;-73
2021/06/28 09:28:42;;;;;;;2.45;1.63;;;;;;;;;;5011176;28;20249;-74
2021/06/28 09:31:16;;;;;;;1.58;1.40;;;;;;;;;;5011174;28;20707;-74
2021/06/28 09:33:42;;;;;;;1.23;1.13;;;;;;;;;;5010387;28;20711;-73
2021/06/28 09:36:23;;;;;;;1.55;1.33;;;;;;;;;;5010900;28;20290;-73
2021/06/28 09:38:50;;;;;;;1.52;1.20;;;;;;;;;;5010914;28;20610;-73
2021/06/28 09:41:23;;;;;;;2.55;2.00;;;;;;;;;;5010395;28;20237;-74
2021/06/28 09:43:50;;;;;;;1.55;1.45;;;;;;;;;;5013520;28;20730;-73
2021/06/28 09:46:20;;;;;;;2.10;1.85;;;;;;;;;;5010821;28;20223;-73
2021/06/28 09:48:51;;;;;;;1.40;1.30;;;;;;;;;;5005070;28;20401;-73
2021/06/28 09:51:20;;;;;;;1.50;1.38;;;;;;;;;;5006544;28;20211;-74
2021/06/28 09:53:52;;;;;;;2.72;1.70;;;;;;;;;;5005510;28;20258;-73
2021/06/28 09:56:35;;;;;;;5.72;2.00;;;;;;;;;;5011803;28;20294;-74
2021/06/28 09:59:20;;;;;;;2.08;1.63;;;;;;;;;;5012387;28;20222;-74
2021/06/28 10:01:48;;;;;;;1.95;1.70;;;;;;;;;;5021966;28;20635;-74
2021/06/28 10:04:37;;;;;;;1.77;1.23;;;;;;;;;;5032477;28;20262;-74
2021/06/28 10:07:20;;;;;;;1.63;1.50;;;;;;;;;;5023386;28;20558;-73
2021/06/28 10:10:05;;;;;;;1.42;1.33;;;;;;;;;;5028582;28;20281;-74
2021/06/28 10:12:32;;;;;;;2.60;1.60;;;;;;;;;;5011875;28;20293;-74
2021/06/28 10:14:58;;;;;;;1.75;1.65;;;;;;;;;;5011751;28;20227;-74
2021/06/28 10:17:25;;;;;;;1.92;1.42;;;;;;;;;;5012970;28;20245;-72
2021/06/28 10:19:51;;;;;;;1.77;1.63;;;;;;;;;;5013346;28;20291;-73
2021/06/28 10:22:17;;;;;;;2.67;2.20;;;;;;;;;;5012831;28;20882;-74
2021/06/28 10:24:44;;;;;;;2.50;2.00;;;;;;;;;;5013052;28;20313;-73
2021/06/28 10:27:10;;;;;;;2.20;1.85;;;;;;;;;;5013616;28;20283;-74
2021/06/28 10:29:37;;;;;;;1.90;1.52;;;;;;;;;;5013509;28;20249;-74
2021/06/28 10:32:08;;;;;;;1.83;1.73;;;;;;;;;;5013200;28;20222;-74
2021/06/28 10:34:34;;;;;;;1.95;1.77;;;;;;;;;;5012160;28;20338;-74
2021/06/28 10:37:03;;;;;;;1.45;1.30;;;;;;;;;;5013779;28;20226;-74
2021/06/28 10:39:31;;;;;;;2.05;1.83;;;;;;;;;;5012920;28;20271;-74
2021/06/28 10:42:03;;;;;;;2.13;1.88;;;;;;;;;;5012725;28;20298;-74
2021/06/28 10:44:50;;;;;;;2.25;1.98;;;;;;;;;;5013024;28;20257;-74
2021/06/28 10:47:16;;;;;;;3.15;2.05;;;;;;;;;;5013494;28;20282;-74
2021/06/28 10:49:44;;;;;;;1.90;1.63;;;;;;;;;;5013111;28;20211;-73
2021/06/28 10:52:10;;;;;;;1.85;1.75;;;;;;;;;;5011683;28;20243;-75
2021/06/28 10:54:37;;;;;;;2.20;2.00;;;;;;;;;;5012305;28;20330;-72
2021/06/28 10:57:04;;;;;;;1.92;1.67;;;;;;;;;;5013430;28;20214;-73
2021/06/28 10:59:40;;;;;;;2.17;1.92;;;;;;;;;;5012078;28;20245;-74
2021/06/28 11:02:09;;;;;;;2.72;2.28;;;;;;;;;;5013347;28;20250;-74
2021/06/28 11:04:37;;;;;;;3.13;2.30;;;;;;;;;;5012321;28;20667;-73
2021/06/28 11:07:06;;;;;;;2.67;1.85;;;;;;;;;;5012527;28;20238;-71
2021/06/28 11:09:35;;;;;;;2.65;1.92;;;;;;;;;;5013312;28;20636;-73
2021/06/28 11:12:02;;;;;;;2.08;1.88;;;;;;;;;;5013010;28;20249;-73
2021/06/28 11:14:29;;;;;;;2.25;1.85;;;;;;;;;;5012444;28;20231;-72
2021/06/28 11:16:58;;;;;;;4.15;1.83;;;;;;;;;;5012161;28;20219;-72
2021/06/28 11:19:45;;;;;;;7.25;2.30;;;;;;;;;;5012425;28;20242;-74
2021/06/28 11:22:26;;;;;;;3.35;1.88;;;;;;;;;;5012851;28;20306;-72
2021/06/28 11:25:08;;;;;;;4.00;2.33;;;;;;;;;;5012102;28;20231;-73
2021/06/28 11:27:35;;;;;;;2.00;1.83;;;;;;;;;;5012629;28;20289;-73
2021/06/28 11:30:03;;;;;;;1.70;1.60;;;;;;;;;;5013107;28;20200;-73
2021/06/28 11:32:30;;;;;;;2.22;1.75;;;;;;;;;;5012987;28;20223;-73
2021/06/28 11:34:57;;;;;;;1.90;1.50;;;;;;;;;;5012227;28;20318;-73
2021/06/28 11:37:26;;;;;;;2.83;2.20;;;;;;;;;;5013362;28;20290;-73
2021/06/28 11:39:53;;;;;;;2.13;1.92;;;;;;;;;;5011720;28;20691;-73
2021/06/28 11:42:23;;;;;;;2.22;1.70;;;;;;;;;;5012094;28;20218;-74
2021/06/28 11:44:51;;;;;;;2.13;1.65;;;;;;;;;;5011818;28;20223;-73
2021/06/28 11:47:17;;;;;;;1.48;1.38;;;;;;;;;;5012151;28;20318;-73
2021/06/28 11:49:44;;;;;;;1.85;1.48;;;;;;;;;;5012234;28;20207;-73
2021/06/28 11:52:14;;;;;;;1.60;1.50;;;;;;;;;;5011922;28;20238;-74
2021/06/28 11:54:40;;;;;;;2.40;1.98;;;;;;;;;;5011263;28;20731;-73
2021/06/28 11:57:07;;;;;;;3.25;1.98;;;;;;;;;;5011089;28;20298;-73
2021/06/28 11:59:38;;;;;;;2.13;1.67;;;;;;;;;;5012328;28;20207;-74
2021/06/28 12:02:06;;;;;;;2.50;1.67;;;;;;;;;;5012378;28;20213;-74
2021/06/28 12:04:35;;;;;;;1.70;1.60;;;;;;;;;;5011416;28;20227;-74
2021/06/28 12:07:03;;;;;;;1.92;1.55;;;;;;;;;;5011816;28;20227;-73
2021/06/28 12:09:32;;;;;;;1.45;1.23;;;;;;;;;;5012140;28;20298;-74
2021/06/28 12:12:06;;;;;;;1.65;1.55;;;;;;;;;;5012037;28;20806;-73
2021/06/28 12:14:32;;;;;;;2.03;1.60;;;;;;;;;;5011765;28;20630;-74
2021/06/28 12:17:00;;;;;;;1.85;1.50;;;;;;;;;;5011269;28;20237;-73
2021/06/28 12:19:28;;;;;;;1.65;1.50;;;;;;;;;;5011921;28;20203;-73
2021/06/28 12:21:54;;;;;;;1.63;1.48;;;;;;;;;;5011909;28;20298;-74
2021/06/28 12:24:21;;;;;;;1.60;1.42;;;;;;;;;;5011478;28;20273;-73
2021/06/28 12:27:02;;;;;;;1.67;1.42;;;;;;;;;;5011677;28;20241;-74
2021/06/28 12:29:30;;;;;;;1.75;1.17;;;;;;;;;;5011495;28;20629;-74
2021/06/28 12:32:06;;;;;;;2.75;1.55;;;;;;;;;;5011396;28;20203;-74
2021/06/28 12:34:33;;;;;;;1.98;1.77;;;;;;;;;;5010944;28;20350;-74
2021/06/28 12:37:00;;;;;;;1.80;1.45;;;;;;;;;;5011426;28;20207;-75
2021/06/28 12:39:27;;;;;;;1.58;1.48;;;;;;;;;;5011469;28;20235;-74
2021/06/28 12:41:54;;;;;;;1.83;1.60;;;;;;;;;;5011377;28;20320;-73
2021/06/28 12:44:20;;;;;;;2.88;1.55;;;;;;;;;;5010433;28;20235;-73
2021/06/28 12:46:47;;;;;;;2.00;1.60;;;;;;;;;;5009776;28;20254;-73
2021/06/28 12:49:14;;;;;;;2.20;1.50;;;;;;;;;;5011056;28;20680;-74
2021/06/28 12:51:41;;;;;;;2.60;2.08;;;;;;;;;;5015387;28;20285;-74
2021/06/28 12:54:24;;;;;;;1.48;1.35;;;;;;;;;;5010371;28;20707;-74
2021/06/28 12:56:50;;;;;;;1.42;1.30;;;;;;;;;;5011209;28;20213;-74
2021/06/28 12:59:33;;;;;;;1.73;1.40;;;;;;;;;;5010770;28;20203;-74
2021/06/28 13:02:00;;;;;;;1.17;1.08;;;;;;;;;;5010886;28;20207;-73
2021/06/28 13:04:27;;;;;;;1.50;1.40;;;;;;;;;;5008119;28;20226;-74
2021/06/28 13:06:56;;;;;;;2.70;1.90;;;;;;;;;;5010572;28;20254;-73
2021/06/28 13:09:26;;;;;;;2.80;1.30;;;;;;;;;;5010865;28;20243;-76
2021/06/28 13:11:55;;;;;;;1.33;1.15;;;;;;;;;;5010671;28;20199;-75
2021/06/28 13:14:22;;;;;;;1.83;1.27;;;;;;;;;;5011301;28;20317;-75
2021/06/28 13:17:03;;;;;;;2.47;1.45;;;;;;;;;;5010772;28;20297;-74
2021/06/28 13:19:31;;;;;;;2.75;1.20;;;;;;;;;;5010885;28;20207;-74
2021/06/28 13:21:59;;;;;;;1.42;1.20;;;;;;;;;;5010569;28;20215;-74
2021/06/28 13:24:26;;;;;;;1.35;1.20;;;;;;;;;;5010038;28;20265;-75
2021/06/28 13:27:11;;;;;;;1.30;1.20;;;;;;;;;;5010406;28;20310;-74
2021/06/28 13:29:39;;;;;;;1.40;1.30;;;;;;;;;;5010510;28;20302;-74
2021/06/28 13:32:10;;;;;;;1.52;1.30;;;;;;;;;;5010544;28;20291;-73
2021/06/28 13:34:37;;;;;;;1.42;1.20;;;;;;;;;;5009441;28;20662;-74
2021/06/28 13:37:10;;;;;;;1.77;1.40;;;;;;;;;;5010366;28;20822;-73
2021/06/28 13:39:48;;;;;;;1.30;1.15;;;;;;;;;;5009397;28;20229;-74
2021/06/28 13:42:19;;;;;;;1.80;1.50;;;;;;;;;;5010329;28;20234;-74
2021/06/28 13:45:04;;;;;;;1.30;1.20;;;;;;;;;;5009743;28;20323;-74
2021/06/28 13:47:31;;;;;;;1.92;1.70;;;;;;;;;;4989688;28;20285;-73
2021/06/28 13:49:59;;;;;;;1.83;1.55;;;;;;;;;;4989955;28;20225;-73
2021/06/28 13:52:26;;;;;;;1.30;1.20;;;;;;;;;;5009009;28;20234;-74
2021/06/28 13:54:53;;;;;;;1.30;1.20;;;;;;;;;;5009257;28;20246;-73
2021/06/28 13:57:19;;;;;;;1.88;1.50;;;;;;;;;;5009796;28;20495;-74
2021/06/28 13:59:46;;;;;;;1.75;1.40;;;;;;;;;;5008222;28;20211;-73
2021/06/28 14:02:12;;;;;;;1.30;1.10;;;;;;;;;;5009741;28;20757;-76
2021/06/28 14:04:40;;;;;;;1.55;1.33;;;;;;;;;;5009363;28;20557;-76
2021/06/28 14:07:07;;;;;;;1.80;1.20;;;;;;;;;;5009359;28;20235;-76
2021/06/28 14:09:33;;;;;;;1.35;1.00;;;;;;;;;;5009572;28;20286;-76
2021/06/28 14:12:00;;;;;;;1.52;1.00;;;;;;;;;;5009652;28;20294;-75
2021/06/28 14:14:26;;;;;;;1.10;0.95;;;;;;;;;;5009004;28;20625;-77
2021/06/28 14:16:53;;;;;;;1.67;1.02;;;;;;;;;;5008068;28;20348;-76
2021/06/28 14:19:19;;;;;;;1.40;1.30;;;;;;;;;;5007562;28;20211;-76
2021/06/28 14:21:46;;;;;;;1.27;1.17;;;;;;;;;;5009080;28;20743;-77
2021/06/28 14:24:12;;;;;;;1.48;1.25;;;;;;;;;;5007835;28;20270;-76
2021/06/28 14:26:39;;;;;;;1.40;1.25;;;;;;;;;;5008971;28;20611;-76
2021/06/28 14:29:05;;;;;;;1.20;1.10;;;;;;;;;;5025294;28;20213;-77
2021/06/28 14:31:32;;;;;;;2.35;1.75;;;;;;;;;;5029276;28;20735;-76
2021/06/28 14:33:59;;;;;;;1.23;1.13;;;;;;;;;;5028548;28;20630;-76
2021/06/28 14:36:25;;;;;;;1.77;1.58;;;;;;;;;;5028090;28;20252;-76
2021/06/28 14:38:55;;;;;;;1.55;1.20;;;;;;;;;;5028485;28;20657;-76
2021/06/28 14:41:21;;;;;;;1.75;1.30;;;;;;;;;;5031094;28;20290;-76
2021/06/28 14:43:48;;;;;;;1.65;1.50;;;;;;;;;;5013842;28;20323;-76
2021/06/28 14:46:14;;;;;;;4.68;2.10;;;;;;;;;;5003846;28;20229;-76
2021/06/28 14:48:40;;;;;;;1.85;1.70;;;;;;;;;;5012935;28;20604;-76
2021/06/28 14:51:08;;;;;;;2.88;1.40;;;;;;;;;;5028083;28;20235;-75
2021/06/28 14:53:34;;;;;;;1.48;1.38;;;;;;;;;;5011372;28;20305;-75
2021/06/28 14:56:01;;;;;;;5.43;1.40;;;;;;;;;;5020435;28;20288;-75
2021/06/28 14:58:29;;;;;;;1.73;1.48;;;;;;;;;;5028251;28;20291;-75
2021/06/28 15:00:55;;;;;;;1.30;1.20;;;;;;;;;;5013574;28;20239;-77
2021/06/28 15:03:22;;;;;;;1.52;1.38;;;;;;;;;;5011469;28;21097;-76
2021/06/28 15:05:48;;;;;;;1.75;1.30;;;;;;;;;;5012191;28;20215;-76
2021/06/28 15:08:15;;;;;;;1.58;1.40;;;;;;;;;;5011373;28;20314;-76
2021/06/28 15:10:41;;;;;;;2.13;1.58;;;;;;;;;;4997141;28;20298;-76
2021/06/28 15:13:09;;;;;;;1.33;1.23;;;;;;;;;;4998267;28;20253;-72
2021/06/28 15:15:35;;;;;;;1.52;1.42;;;;;;;;;;5010697;28;20196;-72
2021/06/28 15:18:02;;;;;;;2.65;1.92;;;;;;;;;;5011277;28;20260;-74
2021/06/28 15:20:28;;;;;;;1.60;1.48;;;;;;;;;;5012358;28;20234;-73
2021/06/28 15:22:55;;;;;;;1.63;1.40;;;;;;;;;;5005374;28;20208;-73
2021/06/28 15:25:21;;;;;;;1.88;1.70;;;;;;;;;;4991488;28;20227;-73
2021/06/28 15:27:50;;;;;;;2.13;1.55;;;;;;;;;;4992439;28;20264;-73